createdAt,value
2018-11-05T00:02:05.742Z,93.22
2018-11-05T00:04:34.557Z,93.12
2018-11-05T00:07:03.253Z,93.07
2018-11-05T00:09:31.826Z,93.11
2018-11-05T00:12:00.392Z,92.86
2018-11-05T00:14:28.961Z,93.28
2018-11-05T00:16:57.489Z,92.25
2018-11-05T00:19:26.013Z,92.41
2018-11-05T00:21:54.562Z,93.06
2018-11-05T00:24:23.097Z,92.88
2018-11-05T00:26:51.655Z,92.58
2018-11-05T00:29:20.292Z,93.14
2018-11-05T00:31:48.847Z,92.64
2018-11-05T00:34:17.396Z,92.57
2018-11-05T00:36:45.978Z,93.42
2018-11-05T00:39:14.533Z,92.77
2018-11-05T00:41:43.284Z,93.14
2018-11-05T00:44:11.925Z,93.05
2018-11-05T00:46:40.468Z,93.79
2018-11-05T00:49:09.051Z,93.85
2018-11-05T00:51:37.641Z,94.02
2018-11-05T00:54:06.553Z,93.41
2018-11-05T00:56:35.115Z,94.00
2018-11-05T00:59:03.712Z,94.17
2018-11-05T01:01:32.288Z,93.56
2018-11-05T01:04:00.924Z,94.28
2018-11-05T01:06:29.474Z,93.93
2018-11-05T01:08:58.022Z,93.96
2018-11-05T01:11:26.608Z,94.67
2018-11-05T01:13:55.170Z,93.80
2018-11-05T01:16:23.681Z,94.47
2018-11-05T01:18:52.884Z,94.28
2018-11-05T01:21:21.449Z,94.46
2018-11-05T01:23:49.989Z,93.95
2018-11-05T01:26:18.506Z,93.65
2018-11-05T01:28:47.242Z,94.14
2018-11-05T01:31:15.969Z,94.72
2018-11-05T01:33:44.861Z,94.55
2018-11-05T01:36:13.989Z,94.50
2018-11-05T01:38:43.223Z,93.95
2018-11-05T01:41:11.821Z,93.94
2018-11-05T01:43:41.135Z,94.11
2018-11-05T01:46:09.746Z,93.89
2018-11-05T01:48:38.339Z,93.99
2018-11-05T01:51:07.486Z,93.86
2018-11-05T01:53:36.313Z,94.32
2018-11-05T01:56:05.066Z,94.48
2018-11-05T01:58:33.728Z,94.34
2018-11-05T02:01:02.629Z,95.16
2018-11-05T02:03:31.163Z,95.42
2018-11-05T02:05:59.749Z,95.62
2018-11-05T02:08:28.258Z,95.11
2018-11-05T02:10:56.799Z,96.23
2018-11-05T02:13:25.409Z,95.89
2018-11-05T02:15:54.211Z,95.54
2018-11-05T02:18:22.911Z,96.07
2018-11-05T02:20:51.479Z,96.51
2018-11-05T02:23:20.014Z,95.97
2018-11-05T02:25:48.558Z,96.89
2018-11-05T02:28:17.148Z,95.93
2018-11-05T02:30:45.773Z,96.07
2018-11-05T02:33:14.346Z,95.54
2018-11-05T02:35:42.938Z,95.50
2018-11-05T02:38:11.498Z,95.50
2018-11-05T02:40:40.206Z,94.88
2018-11-05T02:43:08.811Z,95.10
2018-11-05T02:45:37.463Z,94.79
2018-11-05T02:48:06.339Z,95.64
2018-11-05T02:50:36.639Z,95.39
2018-11-05T02:53:05.269Z,94.88
2018-11-05T02:55:33.886Z,95.05
2018-11-05T02:58:02.552Z,94.33
2018-11-05T03:00:31.098Z,94.82
2018-11-05T03:02:59.682Z,94.73
2018-11-05T03:05:28.405Z,93.81
2018-11-05T03:07:56.942Z,93.62
2018-11-05T03:10:25.597Z,93.30
2018-11-05T03:12:54.212Z,93.34
2018-11-05T03:15:22.770Z,93.81
2018-11-05T03:17:51.329Z,93.51
2018-11-05T03:20:19.889Z,94.06
2018-11-05T03:22:48.426Z,93.96
2018-11-05T03:25:16.990Z,94.34
2018-11-05T03:27:45.582Z,93.87
2018-11-05T03:30:15.940Z,93.85
2018-11-05T03:32:44.682Z,93.59
2018-11-05T03:35:14.070Z,93.80
2018-11-05T03:37:43.532Z,93.83
2018-11-05T03:40:12.953Z,94.13
2018-11-05T03:42:42.404Z,94.05
2018-11-05T03:45:12.519Z,94.03
2018-11-05T03:47:41.077Z,95.04
2018-11-05T03:50:11.947Z,95.12
2018-11-05T03:52:40.603Z,94.96
2018-11-05T03:55:09.293Z,94.88
2018-11-05T03:57:38.007Z,95.09
2018-11-05T04:00:07.582Z,95.37
2018-11-05T04:02:36.202Z,95.98
2018-11-05T04:05:05.035Z,96.01
2018-11-05T04:07:33.569Z,95.52
2018-11-05T04:10:02.197Z,95.49
2018-11-05T04:12:30.769Z,95.92
2018-11-05T04:14:59.314Z,95.63
2018-11-05T04:17:27.862Z,96.61
2018-11-05T04:19:56.454Z,95.86
2018-11-05T04:22:24.983Z,96.00
2018-11-05T04:24:53.537Z,96.31
2018-11-05T04:27:22.143Z,96.72
2018-11-05T04:29:50.721Z,97.03
2018-11-05T04:32:19.306Z,96.80
2018-11-05T04:34:47.939Z,96.97
2018-11-05T04:37:16.521Z,97.15
2018-11-05T04:39:45.065Z,96.77
2018-11-05T04:42:14.333Z,97.22
2018-11-05T04:44:43.050Z,97.21
2018-11-05T04:47:11.739Z,96.25
2018-11-05T04:49:41.209Z,96.52
2018-11-05T04:52:09.967Z,97.28
2018-11-05T04:54:38.654Z,97.27
2018-11-05T04:57:07.313Z,97.29
2018-11-05T04:59:36.451Z,96.82
2018-11-05T05:02:05.346Z,97.27
2018-11-05T05:04:33.969Z,96.86
2018-11-05T05:07:02.621Z,97.26
2018-11-05T05:09:31.445Z,96.58
2018-11-05T05:12:00.045Z,96.56
2018-11-05T05:14:28.637Z,97.19
2018-11-05T05:16:57.137Z,96.54
2018-11-05T05:19:26.013Z,97.38
2018-11-05T05:21:54.664Z,96.65
2018-11-05T05:24:23.261Z,97.46
2018-11-05T05:26:52.504Z,97.55
2018-11-05T05:29:21.025Z,97.00
2018-11-05T05:31:49.726Z,97.23
2018-11-05T05:34:18.369Z,97.11
2018-11-05T05:36:47.013Z,97.04
2018-11-05T05:39:15.615Z,97.61
2018-11-05T05:41:44.686Z,97.49
2018-11-05T05:44:13.305Z,97.28
2018-11-05T05:46:42.105Z,97.97
2018-11-05T05:49:10.829Z,98.05
2018-11-05T05:51:39.559Z,97.31
2018-11-05T05:54:08.759Z,97.24
2018-11-05T05:56:37.810Z,97.21
2018-11-05T05:59:06.477Z,97.24
2018-11-05T06:01:35.049Z,97.07
2018-11-05T06:04:04.913Z,97.09
2018-11-05T06:06:33.689Z,97.60
2018-11-05T06:09:02.503Z,97.18
2018-11-05T06:11:32.462Z,97.00
2018-11-05T06:14:01.157Z,97.07
2018-11-05T06:16:29.821Z,96.73
2018-11-05T06:18:58.414Z,97.13
2018-11-05T06:21:26.953Z,96.77
2018-11-05T06:23:55.508Z,96.93
2018-11-05T06:26:24.078Z,96.81
2018-11-05T06:28:52.679Z,96.00
2018-11-05T06:31:21.262Z,96.21
2018-11-05T06:33:49.821Z,95.36
2018-11-05T06:36:18.449Z,94.89
2018-11-05T06:38:46.978Z,95.46
2018-11-05T06:41:15.902Z,95.41
2018-11-05T06:43:44.666Z,95.47
2018-11-05T06:46:13.626Z,94.12
2018-11-05T06:48:42.583Z,93.57
2018-11-05T06:51:11.295Z,91.43
2018-11-05T06:53:39.882Z,90.57
2018-11-05T06:56:08.462Z,89.58
2018-11-05T06:58:37.701Z,89.63
2018-11-05T07:01:06.866Z,90.16
2018-11-05T07:03:35.681Z,90.17
2018-11-05T07:06:04.345Z,89.21
2018-11-05T07:08:32.958Z,88.84
2018-11-05T07:11:01.554Z,89.61
2018-11-05T07:13:30.251Z,89.92
2018-11-05T07:15:58.792Z,90.45
2018-11-05T07:18:27.456Z,90.68
2018-11-05T07:20:56.090Z,90.23
2018-11-05T07:23:24.673Z,90.83
2018-11-05T07:25:53.333Z,90.54
2018-11-05T07:28:22.027Z,91.01
2018-11-05T07:30:50.571Z,90.45
2018-11-05T07:33:19.222Z,90.38
2018-11-05T07:35:47.915Z,89.34
2018-11-05T07:38:16.446Z,88.92
2018-11-05T07:40:45.131Z,89.50
2018-11-05T07:43:13.662Z,88.08
2018-11-05T07:45:42.213Z,87.82
2018-11-05T07:48:10.783Z,86.88
2018-11-05T07:50:39.339Z,86.15
2018-11-05T07:53:08.082Z,87.00
2018-11-05T07:55:36.861Z,86.75
2018-11-05T07:58:05.451Z,86.02
2018-11-05T08:00:39.334Z,85.62
2018-11-05T08:03:07.870Z,86.10
2018-11-05T08:05:36.437Z,85.78
2018-11-05T08:08:06.387Z,85.72
2018-11-05T08:10:35.098Z,85.91
2018-11-05T08:13:03.661Z,85.27
2018-11-05T08:15:32.264Z,85.87
2018-11-05T08:18:00.806Z,84.98
2018-11-05T08:20:29.372Z,84.89
2018-11-05T08:22:58.020Z,84.08
2018-11-05T08:25:26.697Z,83.80
2018-11-05T08:27:55.282Z,83.30
2018-11-05T08:30:25.073Z,82.12
2018-11-05T08:32:53.847Z,81.52
2018-11-05T08:35:23.139Z,80.76
2018-11-05T08:37:52.226Z,80.82
2018-11-05T08:40:26.576Z,80.53
2018-11-05T08:42:56.462Z,80.25
2018-11-05T08:45:26.438Z,78.47
2018-11-05T08:47:55.023Z,78.03
2018-11-05T08:50:24.453Z,78.18
2018-11-05T08:52:53.151Z,77.24
2018-11-05T08:55:25.323Z,75.80
2018-11-05T08:57:56.114Z,75.59
2018-11-05T09:00:29.978Z,74.81
2018-11-05T09:02:58.518Z,74.76
2018-11-05T09:05:27.133Z,74.39
2018-11-05T09:07:56.360Z,73.92
2018-11-05T09:10:24.999Z,75.05
2018-11-05T09:12:53.729Z,74.94
2018-11-05T09:15:22.976Z,73.68
2018-11-05T09:17:51.788Z,73.16
2018-11-05T09:20:20.718Z,73.97
2018-11-05T09:22:50.466Z,72.66
2018-11-05T09:25:19.537Z,73.03
2018-11-05T09:27:48.144Z,72.40
2018-11-05T09:30:20.092Z,72.07
2018-11-05T09:32:48.687Z,72.09
2018-11-05T09:35:17.278Z,71.04
2018-11-05T09:37:45.864Z,69.97
2018-11-05T09:40:18.193Z,70.84
2018-11-05T09:42:47.803Z,70.54
2018-11-05T09:45:19.917Z,69.17
2018-11-05T09:47:48.604Z,69.65
2018-11-05T09:50:17.896Z,69.00
2018-11-05T09:52:46.469Z,69.38
2018-11-05T09:55:15.729Z,68.38
2018-11-05T09:57:44.285Z,69.20
2018-11-05T10:00:16.577Z,68.79
2018-11-05T10:02:50.485Z,67.99
2018-11-05T10:05:19.327Z,67.53
2018-11-05T10:07:48.010Z,67.70
2018-11-05T10:10:17.470Z,67.89
2018-11-05T10:12:46.103Z,66.89
2018-11-05T10:15:16.047Z,66.94
2018-11-05T10:17:44.764Z,66.26
2018-11-05T10:20:17.861Z,66.09
2018-11-05T10:22:46.853Z,65.88
2018-11-05T10:25:15.899Z,65.21
2018-11-05T10:27:45.060Z,64.71
2018-11-05T10:30:21.927Z,64.30
2018-11-05T10:32:50.578Z,64.52
2018-11-05T10:35:20.253Z,64.31
2018-11-05T10:37:48.929Z,64.36
2018-11-05T10:40:19.338Z,64.34
2018-11-05T10:42:48.620Z,63.29
2018-11-05T10:45:18.552Z,63.40
2018-11-05T10:47:47.175Z,63.39
2018-11-05T10:50:16.716Z,63.15
2018-11-05T10:52:46.777Z,62.55
2018-11-05T10:55:15.710Z,62.24
2018-11-05T10:57:44.564Z,62.16
2018-11-05T11:00:19.954Z,61.86
2018-11-05T11:02:53.639Z,62.23
2018-11-05T11:05:22.955Z,60.79
2018-11-05T11:07:52.117Z,61.48
2018-11-05T11:10:20.692Z,60.25
2018-11-05T11:12:49.304Z,60.32
2018-11-05T11:15:17.993Z,60.54
2018-11-05T11:17:46.681Z,61.41
2018-11-05T11:20:15.353Z,62.07
2018-11-05T11:22:43.874Z,61.49
2018-11-05T11:25:12.578Z,60.39
2018-11-05T11:27:41.215Z,61.79
2018-11-05T11:30:11.600Z,62.38
2018-11-05T11:32:40.780Z,61.35
2018-11-05T11:35:09.913Z,60.23
2018-11-05T11:37:38.759Z,59.65
2018-11-05T11:40:15.310Z,59.80
2018-11-05T11:42:44.874Z,60.44
2018-11-05T11:45:14.152Z,59.96
2018-11-05T11:47:42.824Z,60.17
2018-11-05T11:50:13.455Z,60.09
2018-11-05T11:52:42.337Z,60.59
2018-11-05T11:55:13.366Z,59.22
2018-11-05T11:57:42.253Z,59.79
2018-11-05T12:00:16.761Z,59.86
2018-11-05T12:02:46.388Z,60.37
2018-11-05T12:05:15.073Z,59.93
2018-11-05T12:07:44.150Z,59.36
2018-11-05T12:10:15.123Z,59.07
2018-11-05T12:12:44.078Z,59.10
2018-11-05T12:15:13.422Z,59.33
2018-11-05T12:17:43.015Z,58.90
2018-11-05T12:20:13.791Z,59.23
2018-11-05T12:22:42.997Z,58.57
2018-11-05T12:25:11.594Z,58.76
2018-11-05T12:27:40.165Z,58.75
2018-11-05T12:30:18.650Z,58.71
2018-11-05T12:32:47.940Z,57.93
2018-11-05T12:37:57.173Z,57.99
2018-11-05T12:40:25.706Z,58.56
2018-11-05T12:42:54.513Z,58.64
2018-11-05T12:45:23.154Z,59.30
2018-11-05T12:47:51.685Z,59.50
2018-11-05T12:50:21.501Z,58.88
2018-11-05T12:52:51.110Z,58.49
2018-11-05T12:55:19.683Z,58.53
2018-11-05T12:57:48.568Z,58.17
2018-11-05T13:00:19.123Z,58.59
2018-11-05T13:02:52.779Z,57.13
2018-11-05T13:05:21.677Z,57.62
2018-11-05T13:07:50.317Z,56.96
2018-11-05T13:10:18.897Z,56.99
2018-11-05T13:12:47.574Z,56.62
2018-11-05T13:15:16.326Z,56.72
2018-11-05T13:17:44.986Z,56.18
2018-11-05T13:20:17.525Z,56.81
2018-11-05T13:22:46.416Z,56.22
2018-11-05T13:25:15.169Z,56.01
2018-11-05T13:27:45.813Z,55.91
2018-11-05T13:30:15.249Z,55.54
2018-11-05T13:32:44.264Z,55.67
2018-11-05T13:35:14.557Z,55.59
2018-11-05T13:37:43.360Z,54.02
2018-11-05T13:40:17.098Z,54.15
2018-11-05T13:42:46.177Z,53.05
2018-11-05T13:45:15.440Z,52.34
2018-11-05T13:47:44.848Z,52.53
2018-11-05T13:50:13.665Z,52.11
2018-11-05T13:52:42.393Z,52.69
2018-11-05T13:55:13.054Z,53.01
2018-11-05T13:57:42.685Z,52.36
2018-11-05T14:00:13.498Z,53.73
2018-11-05T14:02:42.214Z,53.65
2018-11-05T14:05:11.783Z,54.20
2018-11-05T14:07:40.701Z,55.12
2018-11-05T14:10:13.806Z,55.67
2018-11-05T14:12:43.375Z,56.27
2018-11-05T14:15:12.050Z,56.66
2018-11-05T14:17:41.394Z,56.92
2018-11-05T14:20:11.572Z,57.51
2018-11-05T14:22:40.583Z,57.40
2018-11-05T14:25:12.214Z,56.54
2018-11-05T14:27:41.416Z,56.13
2018-11-05T14:30:12.962Z,56.45
2018-11-05T14:32:43.180Z,56.83
2018-11-05T14:35:12.097Z,56.43
2018-11-05T14:37:40.741Z,56.22
2018-11-05T14:40:11.043Z,56.85
2018-11-05T14:42:39.658Z,57.24
2018-11-05T14:45:10.841Z,57.44
2018-11-05T14:47:39.875Z,57.63
2018-11-05T14:50:11.393Z,57.73
2018-11-05T14:52:39.970Z,57.68
2018-11-05T14:55:11.019Z,58.56
2018-11-05T14:57:39.778Z,57.90
2018-11-05T15:00:19.327Z,58.94
2018-11-05T15:02:48.871Z,58.20
2018-11-05T15:05:17.830Z,59.23
2018-11-05T15:07:47.231Z,58.62
2018-11-05T15:10:21.068Z,59.37
2018-11-05T15:12:49.653Z,59.60
2018-11-05T15:15:18.835Z,59.85
2018-11-05T15:17:47.709Z,59.66
2018-11-05T15:20:17.917Z,59.37
2018-11-05T15:22:46.342Z,59.57
2018-11-05T15:25:16.076Z,60.28
2018-11-05T15:27:44.718Z,60.58
2018-11-05T15:30:17.017Z,60.58
2018-11-05T15:32:45.846Z,60.82
2018-11-05T15:35:14.920Z,59.91
2018-11-05T15:37:43.810Z,61.13
2018-11-05T15:40:15.744Z,60.38
2018-11-05T15:42:44.290Z,60.62
2018-11-05T15:45:14.542Z,60.48
2018-11-05T15:47:43.375Z,60.95
2018-11-05T15:50:14.845Z,60.44
2018-11-05T15:52:43.895Z,59.72
2018-11-05T15:55:12.545Z,60.16
2018-11-05T15:57:41.306Z,58.80
2018-11-05T16:00:17.286Z,58.59
2018-11-05T16:02:47.513Z,57.55
2018-11-05T16:05:16.102Z,57.05
2018-11-05T16:07:44.899Z,56.99
2018-11-05T16:10:13.475Z,56.78
2018-11-05T16:12:42.798Z,56.46
2018-11-05T16:15:12.226Z,56.99
2018-11-05T16:17:42.923Z,57.39
2018-11-05T16:20:13.773Z,56.59
2018-11-05T16:22:42.555Z,56.65
2018-11-05T16:25:11.202Z,56.82
2018-11-05T16:27:39.932Z,56.47
2018-11-05T16:30:11.262Z,56.36
2018-11-05T16:32:39.925Z,56.42
2018-11-05T16:35:08.782Z,57.10
2018-11-05T16:37:37.497Z,57.19
2018-11-05T16:40:08.228Z,56.58
2018-11-05T16:42:37.187Z,56.80
2018-11-05T16:45:06.698Z,57.06
2018-11-05T16:47:35.401Z,57.79
2018-11-05T16:50:04.469Z,57.77
2018-11-05T16:52:33.016Z,58.68
2018-11-05T16:55:01.659Z,58.52
2018-11-05T16:57:30.236Z,58.78
2018-11-05T16:59:58.949Z,60.12
2018-11-05T17:02:27.813Z,60.38
2018-11-05T17:04:56.397Z,60.04
2018-11-05T17:07:24.958Z,61.17
2018-11-05T17:09:53.553Z,61.00
2018-11-05T17:12:22.133Z,60.52
2018-11-05T17:14:50.670Z,61.44
2018-11-05T17:17:19.238Z,61.59
2018-11-05T17:19:47.797Z,61.75
2018-11-05T17:22:16.397Z,61.48
2018-11-05T17:24:44.985Z,60.87
2018-11-05T17:27:13.565Z,61.31
2018-11-05T17:29:42.099Z,61.18
2018-11-05T17:32:10.689Z,60.85
2018-11-05T17:34:39.238Z,61.37
2018-11-05T17:37:07.825Z,60.89
2018-11-05T17:39:36.409Z,60.52
2018-11-05T17:42:05.541Z,60.45
2018-11-05T17:44:34.118Z,60.56
2018-11-05T17:47:02.693Z,60.07
2018-11-05T17:49:31.386Z,60.68
2018-11-05T17:52:00.130Z,60.93
2018-11-05T17:54:28.749Z,60.60
2018-11-05T17:56:57.323Z,60.50
2018-11-05T17:59:26.134Z,60.96
2018-11-05T18:01:54.787Z,61.31
2018-11-05T18:04:23.543Z,60.83
2018-11-05T18:06:52.363Z,61.52
2018-11-05T18:09:21.271Z,61.85
2018-11-05T18:11:50.026Z,62.16
2018-11-05T18:14:18.659Z,62.89
2018-11-05T18:16:47.310Z,64.32
2018-11-05T18:19:15.949Z,64.95
2018-11-05T18:21:44.575Z,65.12
2018-11-05T18:24:13.229Z,65.49
2018-11-05T18:26:41.977Z,65.83
2018-11-05T18:29:10.532Z,65.41
2018-11-05T18:31:39.136Z,65.44
2018-11-05T18:34:07.778Z,65.91
2018-11-05T18:36:36.367Z,67.00
2018-11-05T18:39:08.106Z,66.94
2018-11-05T18:41:36.682Z,68.12
2018-11-05T18:44:05.298Z,68.07
2018-11-05T18:46:33.895Z,67.98
2018-11-05T18:49:04.456Z,68.05
2018-11-05T18:51:33.604Z,68.22
2018-11-05T18:54:02.164Z,68.36
2018-11-05T18:56:30.841Z,68.85
2018-11-05T18:58:59.585Z,68.82
2018-11-05T19:01:28.143Z,69.33
2018-11-05T19:03:56.716Z,70.49
2018-11-05T19:06:25.382Z,71.35
2018-11-05T19:08:54.093Z,72.44
2018-11-05T19:11:22.749Z,72.19
2018-11-05T19:13:51.776Z,72.50
2018-11-05T19:16:20.491Z,71.60
2018-11-05T19:18:49.028Z,70.87
2018-11-05T19:21:17.629Z,71.07
2018-11-05T19:23:46.431Z,71.44
2018-11-05T19:26:15.069Z,71.75
2018-11-05T19:28:43.747Z,71.32
2018-11-05T19:31:12.429Z,72.30
2018-11-05T19:33:41.098Z,71.99
2018-11-05T19:36:09.960Z,72.01
2018-11-05T19:38:38.810Z,72.00
2018-11-05T19:41:07.583Z,72.15
2018-11-05T19:43:36.768Z,71.85
2018-11-05T19:46:05.758Z,71.64
2018-11-05T19:48:34.365Z,72.31
2018-11-05T19:51:03.104Z,72.32
2018-11-05T19:53:31.843Z,71.14
2018-11-05T19:56:00.716Z,71.79
2018-11-05T19:58:29.457Z,71.28
2018-11-05T20:00:58.071Z,72.01
2018-11-05T20:03:26.950Z,71.12
2018-11-05T20:05:55.817Z,70.95
2018-11-05T20:08:24.625Z,71.01
2018-11-05T20:10:53.241Z,69.54
2018-11-05T20:13:21.858Z,68.75
2018-11-05T20:15:50.426Z,68.41
2018-11-05T20:18:19.030Z,67.95
2018-11-05T20:20:47.863Z,66.57
2018-11-05T20:23:16.586Z,66.05
2018-11-05T20:25:45.205Z,65.60
2018-11-05T20:28:13.840Z,64.98
2018-11-05T20:30:42.522Z,64.51
2018-11-05T20:33:11.295Z,64.02
2018-11-05T20:35:39.915Z,64.38
2018-11-05T20:38:08.686Z,63.19
2018-11-05T20:40:38.001Z,62.71
2018-11-05T20:43:07.092Z,62.45
2018-11-05T20:45:35.648Z,62.73
2018-11-05T20:48:04.340Z,62.21
2018-11-05T20:50:32.919Z,62.52
2018-11-05T20:53:01.465Z,61.45
2018-11-05T20:55:30.038Z,61.42
2018-11-05T20:57:59.009Z,61.28
2018-11-05T21:00:27.585Z,61.21
2018-11-05T21:02:56.210Z,61.19
2018-11-05T21:05:24.932Z,60.97
2018-11-05T21:07:53.533Z,60.51
2018-11-05T21:10:22.077Z,60.21
2018-11-05T21:12:50.868Z,59.91
2018-11-05T21:15:20.822Z,60.29
2018-11-05T21:17:50.228Z,59.66
2018-11-05T21:20:18.969Z,60.42
2018-11-05T21:22:48.538Z,60.57
2018-11-05T21:25:17.453Z,60.95
2018-11-05T21:27:46.275Z,61.02
2018-11-05T21:30:16.899Z,60.21
2018-11-05T21:32:45.563Z,61.02
2018-11-05T21:35:15.528Z,61.01
2018-11-05T21:37:44.189Z,60.50
2018-11-05T21:40:14.072Z,60.83
2018-11-05T21:42:42.669Z,59.93
2018-11-05T21:45:12.457Z,60.53
2018-11-05T21:47:41.481Z,60.91
2018-11-05T21:50:11.770Z,60.88
2018-11-05T21:52:41.375Z,60.95
2018-11-05T21:55:10.223Z,60.98
2018-11-05T21:57:40.617Z,61.01
2018-11-05T22:00:13.125Z,62.22
2018-11-05T22:02:47.063Z,62.51
2018-11-05T22:05:15.966Z,62.63
2018-11-05T22:07:44.557Z,62.77
2018-11-05T22:10:13.692Z,62.38
2018-11-05T22:12:42.612Z,63.38
2018-11-05T22:15:11.269Z,62.87
2018-11-05T22:17:39.839Z,63.11
2018-11-05T22:20:09.608Z,63.53
2018-11-05T22:22:38.657Z,63.66
2018-11-05T22:25:07.428Z,63.81
2018-11-05T22:27:36.106Z,64.17
2018-11-05T22:30:05.949Z,64.61
2018-11-05T22:32:34.476Z,64.23
2018-11-05T22:35:03.051Z,65.10
2018-11-05T22:37:31.621Z,64.43
2018-11-05T22:40:00.318Z,65.03
2018-11-05T22:42:28.900Z,64.85
2018-11-05T22:44:57.437Z,64.49
2018-11-05T22:47:25.980Z,65.25
2018-11-05T22:49:54.530Z,65.10
2018-11-05T22:52:23.110Z,65.31
2018-11-05T22:54:51.706Z,65.64
2018-11-05T22:57:20.319Z,65.49
2018-11-05T22:59:49.010Z,66.50
2018-11-05T23:02:17.564Z,66.31
2018-11-05T23:04:46.109Z,65.72
2018-11-05T23:07:14.639Z,66.43
2018-11-05T23:09:43.186Z,65.88
2018-11-05T23:12:11.811Z,66.46
2018-11-05T23:14:40.666Z,66.62
2018-11-05T23:17:09.337Z,66.36
2018-11-05T23:19:37.921Z,66.79
2018-11-05T23:22:07.001Z,65.71
2018-11-05T23:24:35.870Z,65.29
2018-11-05T23:27:04.480Z,65.47
2018-11-05T23:29:33.046Z,65.73
2018-11-05T23:32:01.660Z,66.11
2018-11-05T23:34:30.238Z,65.81
2018-11-05T23:36:58.802Z,65.54
2018-11-05T23:39:27.769Z,66.50
2018-11-05T23:41:56.374Z,66.49
2018-11-05T23:44:24.933Z,66.25
2018-11-05T23:46:53.529Z,66.51
2018-11-05T23:49:22.113Z,66.48
2018-11-05T23:51:50.774Z,66.52
2018-11-05T23:54:19.417Z,67.51
2018-11-05T23:56:48.116Z,67.57
2018-11-05T23:59:16.694Z,67.07
